Decoded Metar for LYTV (TIVAT in SERBIA) (IATA:TIV) | Meteo·Mobile Aviation Weather
aviador You're here:

LYTV Decoded Metar

TIVAT in SERBIA
Report Time2019-08-24 15:00:00
UTC Time2019-08-24 15:26:39
Flight Rules vfr VFR
WindVRB at 02 kt
Visibility9999 m
Phenomena:N/A
Clouds:N/A
Expected CloudBase > 8,000 ft AGL from Temp-Dew spread
CeilingNone
Temp34°C (ISA +19)
Dew Point14°C (30% RH)
Heat Index33.3°C
QNH1014 hPa
Density Alt2,362 ft
Elevation16 ft
Report Wrong Elevation
Raw Report
LYTV 241500Z VRB02KT CAVOK 34/14 Q1014 NOSIG=

Extra information for LYTV:More info

Metar Taf Metar & Taf Last 4 Metars F.Rules Stats Wind Profile Meteogram Temp Stats Airport Information Weather charts Add Link Nearby VenuesMetar ALERT Operation Metar Decoded Social comments